CheckWX is a tool to help pilots better visualize weather data.  It is not intended as a substitute for an official pre-flight weather briefing.

17:16:59 UTC

KBFF TAF
Western Nebraska Regional / William B Heilig Field Airport
Scottsbluff, Nebraska, USA
KBFF 181231Z 1813/1912 05004KT P6SM BKN020 FM181600 13010KT P6SM SCT007 BKN030 FM181900 14010KT P6SM VCTS SCT030 BKN050CB FM182100 14010KT 5SM -TSRA SCT030 BKN050CB FM190200 14008KT P6SM SCT020 BKN100

Jun-18@
13:00 UTC

Jun-18 @ 13:00 UTC

Jun-18@
16:00 UTC

Jun-18 @ 16:00 UTC

KBFF 181231Z 1813/1912 05004KT P6SM BKN020

Expired

Wind
  • 050° at 4 KTS
Cloud Levels
  • Broken at 2,000' AGL

Jun-18@
16:00 UTC

Jun-18 @ 16:00 UTC

Jun-18@
19:00 UTC

Jun-18 @ 19:00 UTC

FM181600 13010KT P6SM SCT007 BKN030

From

From Standard forecast or significant change

Wind
  • 130° at 10 KTS
Cloud Levels
  • Scattered at 700' AGL
  • Broken at 3,000' AGL

Jun-18@
19:00 UTC

Jun-18 @ 19:00 UTC

Jun-18@
21:00 UTC

Jun-18 @ 21:00 UTC

FM181900 14010KT P6SM VCTS SCT030 BKN050CB

From

From Standard forecast or significant change

Wind
  • 140° at 10 KTS
Conditions
Area Thunderstorm
Cloud Levels
  • Scattered at 3,000' AGL
  • Broken at 5,000' AGL

Jun-18@
21:00 UTC

Jun-18 @ 21:00 UTC

Jun-19@
02:00 UTC

Jun-19 @ 02:00 UTC

FM182100 14010KT 5SM -TSRA SCT030 BKN050CB

From

From Standard forecast or significant change

Wind
  • 140° at 10 KTS
Conditions
Light Thunderstorm, Light Rain
Cloud Levels
  • Scattered at 3,000' AGL
  • Broken at 5,000' AGL

Jun-19@
02:00 UTC

Jun-19 @ 02:00 UTC

Jun-19@
12:00 UTC

Jun-19 @ 12:00 UTC

FM190200 14008KT P6SM SCT020 BKN100

From

From Standard forecast or significant change

Wind
  • 140° at 8 KTS
Cloud Levels
  • Scattered at 2,000' AGL
  • Broken at 10,000' AGL